»·PEaware :: ASA762 KSEA-KSFO

ASA762 :: KSEA-KSFO

FLIGHT INFORMATION

Flight Status: Arrived
Operator:
Alaska Airlines
More flights by this operator :: More flights under this callsign
Pilot: Andrew C. (28419)
Aircraft: BOEING 737-800
(B738)
More flights by this aircraft type
Origin: KSEA Seattle-Tacoma Intl
United States
Destination: KSFO San Francisco Intl
United States
More flights between these airports :: More routes between these airports
Route: +HAROB6 ERAVE Q1 ETCHY MLBEC BDEGA3
File this flight plan on PilotEdge
Remarks: RMK / SIMBRIEF
Altitude:
(Current/Filed)
39,000ft
Speed:
(Current/Filed)
464kts
Departed: 19-Sep-20 12:15 PM
Arrived: 19-Sep-20 01:53 PM
Distance/Time
Traveled:
590nm/1:38
Distance/Time
To Go:
Arrived

Flight Plot

Page will automatically refresh every two minutes.

Flight plan parsing failed; only flown route is shown


Map Options




Map Legend


Flown Route
Filed Route
Departure Airport
Arrival Airport
Navaid (VOR, NDB)
Fix

Horizontal Profiles

Position Reports

Time Latitude Longitude Heading Altitude Ground
Speed
19-Sep-20 11:48 47.446060 -122.300786 145 444ft 0kts
19-Sep-20 11:49 47.446060 -122.300786 145 443ft 0kts
19-Sep-20 11:51 47.446060 -122.300786 145 443ft 0kts
19-Sep-20 11:52 47.446060 -122.300786 145 443ft 0kts
19-Sep-20 11:53 47.446060 -122.300786 145 443ft 0kts
19-Sep-20 11:54 47.446060 -122.300786 145 443ft 0kts
19-Sep-20 11:55 47.446060 -122.300786 145 443ft 0kts
19-Sep-20 11:56 47.446060 -122.300786 145 443ft 0kts
19-Sep-20 11:57 47.446060 -122.300786 145 443ft 0kts
19-Sep-20 11:58 47.446060 -122.300786 145 443ft 0kts
19-Sep-20 11:59 47.446060 -122.300786 145 443ft 0kts
19-Sep-20 12:00 47.446060 -122.300786 145 443ft 0kts
19-Sep-20 12:01 47.446060 -122.300786 145 443ft 0kts
19-Sep-20 12:02 47.446060 -122.300787 145 443ft 0kts
19-Sep-20 12:03 47.446060 -122.300787 145 443ft 0kts
19-Sep-20 12:04 47.446060 -122.300787 145 443ft 0kts
19-Sep-20 12:05 47.446060 -122.300787 145 443ft 0kts
19-Sep-20 12:06 47.446399 -122.301133 145 443ft 2kts
19-Sep-20 12:07 47.446929 -122.301051 242 443ft 1kts
19-Sep-20 12:07 47.446966 -122.300916 250 443ft 0kts
19-Sep-20 12:08 47.446966 -122.300916 250 443ft 0kts
19-Sep-20 12:10 47.447629 -122.304726 272 443ft 12kts
19-Sep-20 12:11 47.452054 -122.306263 3 443ft 25kts
19-Sep-20 12:11 47.458448 -122.306210 359 443ft 31kts
19-Sep-20 12:12 47.463565 -122.306342 317 443ft 0kts
19-Sep-20 12:13 47.463364 -122.307751 186 443ft 7kts
19-Sep-20 12:14 47.431586 -122.306905 177 1316ft 168kts
19-Sep-20 12:15 47.369806 -122.309103 183 3125ft 253kts
19-Sep-20 12:16 47.313761 -122.365977 254 6178ft 269kts
19-Sep-20 12:17 47.307537 -122.476874 273 9377ft 277kts
19-Sep-20 12:18 47.311348 -122.601415 273 11167ft 334kts
19-Sep-20 12:19 47.314154 -122.739928 266 14032ft 348kts
19-Sep-20 12:20 47.286303 -122.880914 250 16495ft 364kts
19-Sep-20 12:21 47.243009 -123.019999 237 19051ft 381kts
19-Sep-20 12:22 47.162807 -123.128366 219 21313ft 400kts
19-Sep-20 12:23 47.071869 -123.227174 219 23111ft 418kts
19-Sep-20 12:24 46.979434 -123.327119 220 25139ft 423kts
19-Sep-20 12:25 46.871427 -123.396670 189 26772ft 448kts
19-Sep-20 12:26 46.744254 -123.396095 182 28258ft 461kts
19-Sep-20 12:27 46.614530 -123.392219 182 29615ft 471kts
19-Sep-20 12:28 46.482604 -123.388123 182 31248ft 470kts
19-Sep-20 12:29 46.352229 -123.384070 183 32949ft 464kts
19-Sep-20 12:30 46.223958 -123.380107 183 34508ft 458kts
19-Sep-20 12:31 46.096674 -123.376212 184 35889ft 453kts
19-Sep-20 12:32 45.970821 -123.372374 184 37010ft 451kts
19-Sep-20 12:33 45.847123 -123.368633 185 38029ft 449kts
19-Sep-20 12:34 45.722107 -123.364862 185 39004ft 449kts
19-Sep-20 12:35 45.595109 -123.361081 185 39155ft 455kts
19-Sep-20 12:36 45.469441 -123.357277 185 39174ft 451kts
19-Sep-20 12:37 45.342930 -123.353512 185 39183ft 454kts
19-Sep-20 12:38 45.216785 -123.349745 185 39182ft 453kts
19-Sep-20 12:39 45.090269 -123.345992 185 39183ft 453kts
19-Sep-20 12:40 44.963663 -123.342259 185 39190ft 454kts
19-Sep-20 12:41 44.841263 -123.338655 185 39192ft 454kts
19-Sep-20 12:42 44.714740 -123.334952 185 39192ft 454kts
19-Sep-20 12:43 44.588318 -123.331264 185 39192ft 454kts
19-Sep-20 12:44 44.461753 -123.327335 184 39192ft 455kts
19-Sep-20 12:45 44.335464 -123.322246 184 39192ft 455kts
19-Sep-20 12:46 44.208032 -123.317129 184 39192ft 455kts
19-Sep-20 12:47 44.080869 -123.312051 184 39192ft 455kts
19-Sep-20 12:48 43.953827 -123.306991 184 39192ft 455kts
19-Sep-20 12:49 43.829876 -123.302093 184 39192ft 454kts
19-Sep-20 12:50 43.702433 -123.297082 184 39176ft 455kts
19-Sep-20 12:51 43.575018 -123.292079 184 39173ft 455kts
19-Sep-20 12:52 43.447980 -123.287117 184 39173ft 455kts
19-Sep-20 12:53 43.320798 -123.282162 184 39174ft 454kts
19-Sep-20 12:54 43.194358 -123.277260 184 39173ft 454kts
19-Sep-20 12:55 43.068249 -123.272403 184 39192ft 454kts
19-Sep-20 12:56 42.942270 -123.267563 184 39201ft 453kts
19-Sep-20 12:57 42.816358 -123.262748 184 39201ft 453kts
19-Sep-20 12:58 42.690642 -123.257958 184 39200ft 452kts
19-Sep-20 12:59 42.564390 -123.253163 185 39190ft 452kts
19-Sep-20 13:00 42.438758 -123.248465 185 39183ft 451kts
19-Sep-20 13:01 42.313417 -123.243929 185 39182ft 452kts
19-Sep-20 13:02 42.188054 -123.239333 185 39182ft 451kts
19-Sep-20 13:03 42.062748 -123.234739 185 39182ft 450kts
19-Sep-20 13:04 41.937658 -123.230159 185 39162ft 450kts
19-Sep-20 13:05 41.814906 -123.225694 185 39155ft 449kts
19-Sep-20 13:06 41.689794 -123.221164 185 39155ft 450kts
19-Sep-20 13:07 41.564428 -123.216696 185 39155ft 449kts
19-Sep-20 13:08 41.439868 -123.212423 185 39155ft 448kts
19-Sep-20 13:09 41.314808 -123.208200 185 39149ft 448kts
19-Sep-20 13:10 41.190274 -123.205103 185 39146ft 448kts
19-Sep-20 13:11 41.065624 -123.201988 185 39146ft 448kts
19-Sep-20 13:12 40.941288 -123.198861 185 39146ft 448kts
19-Sep-20 13:13 40.819296 -123.195787 185 39146ft 446kts
19-Sep-20 13:14 40.694455 -123.192671 185 39131ft 447kts
19-Sep-20 13:15 40.569935 -123.189548 185 39119ft 447kts
19-Sep-20 13:16 40.445656 -123.186468 185 39118ft 447kts
19-Sep-20 13:17 40.321358 -123.183386 185 39119ft 446kts
19-Sep-20 13:18 40.197074 -123.180327 185 39101ft 446kts
19-Sep-20 13:19 40.073029 -123.177273 185 39091ft 446kts
19-Sep-20 13:20 39.949399 -123.174189 185 39091ft 445kts
19-Sep-20 13:21 39.826355 -123.168489 184 39090ft 445kts
19-Sep-20 13:22 39.702591 -123.162681 184 39073ft 445kts
19-Sep-20 13:23 39.578857 -123.156945 184 39054ft 444kts
19-Sep-20 13:24 39.456360 -123.151307 184 39036ft 444kts
19-Sep-20 13:25 39.333136 -123.145660 184 39036ft 444kts
19-Sep-20 13:26 39.210040 -123.140014 184 39036ft 439kts
19-Sep-20 13:27 39.089158 -123.120307 166 39036ft 451kts
19-Sep-20 13:28 38.975774 -123.040843 152 37599ft 476kts
19-Sep-20 13:29 38.862905 -122.961908 168 35277ft 451kts
19-Sep-20 13:30 38.743820 -122.921564 171 31976ft 445kts
19-Sep-20 13:31 38.623241 -122.884796 171 29047ft 446kts
19-Sep-20 13:32 38.504987 -122.849604 171 27214ft 432kts
19-Sep-20 13:33 38.385411 -122.814445 171 23679ft 443kts
19-Sep-20 13:34 38.266938 -122.779632 170 21443ft 418kts
19-Sep-20 13:35 38.158377 -122.747988 170 19385ft 399kts
19-Sep-20 13:36 38.052221 -122.717259 169 17334ft 383kts
19-Sep-20 13:37 37.950489 -122.687808 169 15351ft 369kts
19-Sep-20 13:38 37.861086 -122.632206 141 13397ft 366kts
19-Sep-20 13:39 37.783955 -122.550706 139 11503ft 351kts
19-Sep-20 13:40 37.714827 -122.477493 139 11042ft 303kts
19-Sep-20 13:41 37.652674 -122.411380 139 10151ft 286kts
19-Sep-20 13:42 37.590070 -122.351925 151 8984ft 277kts
19-Sep-20 13:43 37.518997 -122.306674 153 8281ft 305kts
19-Sep-20 13:44 37.488084 -122.228622 93 7677ft 237kts
19-Sep-20 13:45 37.483584 -122.148899 93 5638ft 229kts
19-Sep-20 13:47 37.520466 -122.106560 333 3751ft 219kts
19-Sep-20 13:48 37.535771 -122.174903 284 3040ft 205kts
19-Sep-20 13:49 37.558376 -122.232082 299 2182ft 170kts
19-Sep-20 13:50 37.580008 -122.283344 297 1321ft 143kts
19-Sep-20 13:51 37.598740 -122.327735 299 617ft 144kts
19-Sep-20 13:52 37.616809 -122.370485 298 19ft 90kts
19-Sep-20 13:53 37.619551 -122.379417 231 19ft 0kts
19-Sep-20 13:54 37.619061 -122.379865 190 19ft 12kts
19-Sep-20 13:55 37.615847 -122.381144 296 19ft 12kts
19-Sep-20 13:56 37.616740 -122.381719 21 19ft 0kts
19-Sep-20 13:57 37.616740 -122.381719 21 19ft 0kts
19-Sep-20 13:58 37.616740 -122.381719 21 19ft 0kts
19-Sep-20 13:59 37.616740 -122.381719 21 19ft 0kts
19-Sep-20 14:00 37.616740 -122.381719 21 19ft 0kts

Navigation Log

Ident Type
Flight plan parsing failed, navigation log unavailable